In Rescue
 
Open Full Screen Window  High Contrast Mode
Wind Gusting 00 knots
03
June 22, 2024 8:35 PM EDT
Weather Information
Wind Direction
  160 °
Wind Speed
  03 kt (3 mph)
Wind Gust
  00 kt (0 mph)
Altimeter
29.74 in
Visibility
10 SM
Temperature
23° C
73° F
Dewpoint
23° C
73° F
Humidity
100%
Sky Condition
Overcast @ 10,000 ft
Broken @ 8,000 ft
VFR

METAR KCFS 230035Z AUTO 16003KT 10SM BKN080 OVC100 23/23 A2974 RMK AO2 T02300227

FAA Disclaimer: The data displayed is for advisory purposes only and is not to be used for flight planning or operations.